Time;durP1;ratioP1;P1;durP2;ratioP2;P2;SDS_P1;SDS_P2;PMS_P1;PMS_P2;Temp;Humidity;BMP_temperature;BMP_pressure;BME280_temperature;BME280_humidity;BME280_pressure;Samples;Min_cycle;Max_cycle;Signal;HPM_P1;HPM_P2
2022/10/15 00:01:36;;;;;;;7.32;4.43;;;11.40;97.70;;;;;;4787038;29;20052;-90
2022/10/15 00:04:06;;;;;;;6.50;3.28;;;11.40;97.70;;;;;;4771787;29;20055;-89
2022/10/15 00:06:34;;;;;;;11.32;4.80;;;11.40;97.80;;;;;;4779634;29;20063;-90
2022/10/15 00:09:01;;;;;;;7.97;3.97;;;11.40;97.70;;;;;;4786938;29;20058;-90
2022/10/15 00:11:30;;;;;;;7.90;4.60;;;11.40;97.70;;;;;;4771898;29;20497;-90
2022/10/15 00:13:59;;;;;;;7.57;4.05;;;11.40;97.70;;;;;;4786390;29;20064;-90
2022/10/15 00:16:28;;;;;;;12.15;5.15;;;11.40;97.70;;;;;;4771674;29;20142;-90
2022/10/15 00:18:57;;;;;;;10.98;4.45;;;11.40;97.70;;;;;;4771613;29;20055;-90
2022/10/15 00:21:25;;;;;;;11.73;5.05;;;11.40;97.70;;;;;;4786370;29;20087;-89
2022/10/15 00:23:52;;;;;;;9.88;4.85;;;11.40;97.70;;;;;;4771324;29;20136;-90
2022/10/15 00:26:25;;;;;;;14.38;4.45;;;11.40;97.70;;;;;;4786190;29;20048;-90
2022/10/15 00:28:57;;;;;;;11.98;4.50;;;11.40;97.60;;;;;;4786300;29;20105;-89
2022/10/15 00:31:27;;;;;;;10.77;4.85;;;11.40;97.70;;;;;;4771337;29;20054;-90
2022/10/15 00:34:03;;;;;;;9.52;5.10;;;11.40;97.60;;;;;;4774924;29;20079;-90
2022/10/15 00:36:35;;;;;;;6.75;4.28;;;11.40;97.60;;;;;;4771825;30;20105;-91
2022/10/15 00:39:04;;;;;;;8.35;4.20;;;11.40;97.60;;;;;;4786292;30;20397;-90
2022/10/15 00:41:36;;;;;;;7.53;3.75;;;11.40;97.60;;;;;;4768749;30;20048;-93
2022/10/15 00:44:28;;;;;;;6.70;4.30;;;11.40;97.60;;;;;;4768424;30;20521;-92
2022/10/15 00:47:00;;;;;;;6.38;3.35;;;11.40;97.50;;;;;;4753311;30;20049;-92
2022/10/15 00:49:32;;;;;;;6.07;3.25;;;11.30;97.60;;;;;;4738723;30;20083;-91
2022/10/15 00:52:16;;;;;;;5.80;2.70;;;11.30;97.60;;;;;;4753465;30;20083;-91
2022/10/15 00:54:51;;;;;;;4.35;2.28;;;11.30;97.60;;;;;;4753743;29;20054;-91
2022/10/15 00:57:23;;;;;;;5.53;3.20;;;11.30;97.60;;;;;;4753481;30;20048;-91
2022/10/15 00:59:56;;;;;;;5.70;2.60;;;11.20;97.60;;;;;;4753974;29;20066;-91
2022/10/15 01:02:23;;;;;;;;;;;11.20;97.60;;;;;;4768450;29;20048;-91
2022/10/15 01:04:52;;;;;;;4.40;1.67;;;11.10;97.70;;;;;;4768263;30;19926;-91
2022/10/15 01:07:19;;;;;;;3.25;2.08;;;11.10;97.70;;;;;;4753568;30;20114;-91
2022/10/15 01:09:47;;;;;;;4.63;2.53;;;11.10;97.70;;;;;;4753294;30;20106;-91
2022/10/15 01:12:40;;;;;;;3.22;2.03;;;11.00;97.70;;;;;;4753169;30;20048;-91
2022/10/15 01:15:18;;;;;;;3.53;1.90;;;11.00;97.70;;;;;;4767806;29;20151;-91
2022/10/15 01:18:01;;;;;;;4.45;2.58;;;11.00;97.70;;;;;;4753033;30;20064;-91
2022/10/15 01:20:52;;;;;;;3.88;2.20;;;11.00;97.70;;;;;;4753130;29;20052;-91
2022/10/15 01:23:51;;;;;;;3.85;2.25;;;11.00;97.70;;;;;;4752898;30;20089;-91
2022/10/15 01:26:49;;;;;;;4.18;2.10;;;11.00;98.00;;;;;;4768103;30;20065;-84
2022/10/15 01:29:20;;;;;;;3.25;1.80;;;11.00;97.70;;;;;;4769020;29;20214;-83
2022/10/15 01:31:59;;;;;;;4.07;2.20;;;11.00;98.00;;;;;;4756942;30;20059;-83
2022/10/15 01:34:40;;;;;;;3.75;2.00;;;11.10;97.70;;;;;;4768605;29;20538;-83
2022/10/15 01:37:20;;;;;;;3.50;2.28;;;11.10;97.60;;;;;;4768692;29;20071;-83
2022/10/15 01:40:04;;;;;;;4.82;2.17;;;11.10;97.60;;;;;;4783520;29;20059;-84
2022/10/15 01:42:45;;;;;;;3.40;1.75;;;11.20;97.60;;;;;;4783776;29;20134;-84
2022/10/15 01:45:24;;;;;;;4.18;2.05;;;11.30;97.50;;;;;;4767622;30;20421;-83
2022/10/15 01:48:31;;;;;;;5.10;2.40;;;11.30;97.50;;;;;;4764353;30;20409;-83
2022/10/15 01:51:04;;;;;;;3.83;2.35;;;11.30;97.40;;;;;;4768751;30;20058;-84
2022/10/15 01:53:34;;;;;;;5.78;2.53;;;11.30;97.40;;;;;;4768909;29;20062;-84
2022/10/15 01:56:08;;;;;;;4.55;2.40;;;11.30;97.40;;;;;;4768992;30;20466;-83
2022/10/15 01:58:41;;;;;;;6.28;2.40;;;11.30;97.40;;;;;;4768431;30;20101;-84
2022/10/15 02:01:08;;;;;;;4.40;2.60;;;11.40;97.40;;;;;;4768560;29;20063;-83
2022/10/15 02:03:49;;;;;;;4.57;2.50;;;11.40;97.40;;;;;;4768391;29;20047;-84
2022/10/15 02:06:36;;;;;;;4.88;2.50;;;11.40;97.30;;;;;;4783445;29;20051;-83
2022/10/15 02:09:21;;;;;;;4.10;2.35;;;11.50;97.30;;;;;;4768488;30;20528;-84
2022/10/15 02:11:58;;;;;;;5.60;2.75;;;11.40;97.30;;;;;;4768324;29;20529;-83
2022/10/15 02:14:53;;;;;;;4.35;2.25;;;11.50;97.30;;;;;;4783082;29;20051;-83
2022/10/15 02:18:02;;;;;;;4.32;2.17;;;11.40;97.20;;;;;;4768151;29;20476;-83
2022/10/15 02:20:55;;;;;;;3.92;2.30;;;11.50;97.30;;;;;;4783405;30;20083;-83
2022/10/15 02:23:30;;;;;;;6.65;2.50;;;11.50;97.20;;;;;;4768519;30;20047;-83
2022/10/15 02:26:05;;;;;;;4.07;2.13;;;11.50;97.20;;;;;;4768273;29;20421;-83
2022/10/15 02:28:35;;;;;;;4.20;2.33;;;11.50;97.20;;;;;;4768337;30;20059;-84
2022/10/15 02:31:04;;;;;;;5.10;2.95;;;11.50;97.20;;;;;;4768666;29;20130;-83
2022/10/15 02:33:33;;;;;;;5.00;3.17;;;11.50;97.20;;;;;;4744840;30;20052;-83
2022/10/15 02:36:01;;;;;;;4.50;2.28;;;11.50;97.20;;;;;;4768596;29;20083;-84
2022/10/15 02:38:33;;;;;;;6.35;2.50;;;11.50;97.20;;;;;;4783133;29;20191;-83
2022/10/15 02:41:01;;;;;;;5.00;2.63;;;11.50;97.20;;;;;;4753822;30;20048;-83
2022/10/15 02:43:29;;;;;;;5.97;3.25;;;11.40;97.20;;;;;;4753200;30;20528;-83
2022/10/15 02:45:56;;;;;;;4.05;2.30;;;11.40;97.20;;;;;;4783552;29;20059;-84
2022/10/15 02:48:24;;;;;;;5.43;3.22;;;11.40;97.20;;;;;;4768338;29;20060;-83
2022/10/15 02:50:51;;;;;;;3.60;2.25;;;11.30;97.20;;;;;;4782960;29;20040;-83
2022/10/15 02:53:18;;;;;;;4.95;2.95;;;11.40;97.30;;;;;;4768093;29;20047;-84
2022/10/15 02:55:45;;;;;;;5.55;2.90;;;11.40;97.30;;;;;;4782794;29;20048;-83
2022/10/15 02:58:13;;;;;;;6.35;2.80;;;11.40;97.30;;;;;;4767854;29;20059;-84
2022/10/15 03:00:42;;;;;;;4.25;2.47;;;11.40;97.30;;;;;;4782980;29;20147;-83
2022/10/15 03:03:10;;;;;;;5.40;2.92;;;11.40;97.20;;;;;;4767960;30;20462;-83
2022/10/15 03:05:37;;;;;;;4.45;2.20;;;11.40;97.20;;;;;;4783018;29;20051;-83
2022/10/15 03:08:04;;;;;;;3.90;1.83;;;11.30;97.20;;;;;;4782581;29;20048;-83
2022/10/15 03:10:32;;;;;;;5.43;3.28;;;11.30;97.30;;;;;;4772355;29;20144;-83
2022/10/15 03:13:03;;;;;;;4.57;2.60;;;11.20;97.30;;;;;;4771103;29;20138;-83
2022/10/15 03:15:35;;;;;;;4.15;2.22;;;11.20;97.30;;;;;;4771147;29;20147;-83
2022/10/15 03:18:03;;;;;;;5.32;2.58;;;11.10;97.40;;;;;;4786190;29;20048;-83
2022/10/15 03:20:30;;;;;;;5.47;2.80;;;11.10;97.40;;;;;;4771318;29;20496;-83
2022/10/15 03:22:57;;;;;;;5.32;2.80;;;11.00;97.40;;;;;;4771252;29;20055;-83
2022/10/15 03:25:29;;;;;;;5.00;3.15;;;11.00;97.40;;;;;;4771476;30;20051;-83
2022/10/15 03:28:01;;;;;;;5.20;2.92;;;11.00;97.50;;;;;;4771038;30;20497;-83
2022/10/15 03:30:38;;;;;;;6.30;2.45;;;10.90;97.40;;;;;;4770021;29;20071;-83
2022/10/15 03:33:06;;;;;;;3.72;2.15;;;10.90;97.50;;;;;;4771322;30;20052;-83
2022/10/15 03:35:34;;;;;;;4.68;1.88;;;11.00;97.50;;;;;;4771346;30;20071;-83
2022/10/15 03:38:02;;;;;;;6.65;2.42;;;11.00;97.50;;;;;;4785837;29;20062;-83
2022/10/15 03:40:30;;;;;;;4.55;2.65;;;11.00;97.40;;;;;;4785830;29;20697;-83
2022/10/15 03:43:09;;;;;;;4.70;2.20;;;11.00;97.40;;;;;;4770740;30;20134;-83
2022/10/15 03:45:37;;;;;;;4.82;2.58;;;11.10;97.40;;;;;;4771010;30;20052;-83
2022/10/15 03:48:14;;;;;;;5.32;2.58;;;11.10;97.40;;;;;;4785571;29;20146;-83
2022/10/15 03:50:41;;;;;;;4.82;2.67;;;11.10;97.40;;;;;;4785692;29;20071;-83
2022/10/15 03:53:08;;;;;;;5.50;3.25;;;11.10;97.30;;;;;;4785596;29;20062;-83
2022/10/15 03:55:35;;;;;;;4.82;3.00;;;11.20;97.30;;;;;;4770659;29;20060;-83
2022/10/15 03:58:03;;;;;;;4.63;2.58;;;11.20;97.30;;;;;;4770900;29;20407;-83
2022/10/15 04:00:30;;;;;;;5.22;2.95;;;11.30;97.30;;;;;;4770425;29;20105;-83
2022/10/15 04:03:00;;;;;;;5.82;3.20;;;11.30;97.20;;;;;;4770377;29;20079;-83
2022/10/15 04:05:29;;;;;;;5.90;3.13;;;11.30;97.20;;;;;;4770212;29;20055;-83
2022/10/15 04:08:02;;;;;;;5.15;3.17;;;11.30;97.20;;;;;;4758415;30;20067;-84
2022/10/15 04:10:33;;;;;;;5.38;2.80;;;11.30;97.10;;;;;;4770721;30;20055;-83
2022/10/15 04:13:00;;;;;;;5.43;3.20;;;11.30;97.10;;;;;;4770318;29;20428;-83
2022/10/15 04:15:28;;;;;;;4.78;2.58;;;11.30;97.20;;;;;;4770366;30;20058;-83
2022/10/15 04:18:00;;;;;;;;;;;11.30;97.10;;;;;;4785535;29;20055;-83
2022/10/15 04:20:28;;;;;;;3.03;1.65;;;11.30;97.10;;;;;;4770521;29;20372;-83
2022/10/15 04:23:09;;;;;;;5.75;2.90;;;11.20;97.20;;;;;;4783520;30;20055;-83
2022/10/15 04:25:39;;;;;;;5.20;2.53;;;11.20;97.10;;;;;;4770136;29;20044;-83
2022/10/15 04:28:07;;;;;;;5.03;2.75;;;11.20;97.20;;;;;;4770482;29;20133;-83
2022/10/15 04:30:38;;;;;;;6.25;2.88;;;11.20;97.20;;;;;;4785218;29;20130;-83
2022/10/15 04:33:11;;;;;;;4.45;2.70;;;11.20;97.20;;;;;;4769597;30;20090;-83
2022/10/15 04:35:39;;;;;;;6.03;2.95;;;11.20;97.50;;;;;;4770271;30;20071;-83
2022/10/15 04:38:11;;;;;;;5.38;2.95;;;11.20;97.20;;;;;;4785075;29;20052;-83
2022/10/15 04:41:09;;;;;;;4.30;1.90;;;11.20;97.20;;;;;;4781393;29;20476;-83
2022/10/15 04:44:00;;;;;;;4.75;2.58;;;11.20;97.20;;;;;;4772162;29;20064;-83
2022/10/15 04:46:29;;;;;;;4.78;2.72;;;11.10;97.20;;;;;;4784657;29;20054;-82
2022/10/15 04:49:00;;;;;;;6.72;2.50;;;11.10;97.20;;;;;;4769067;29;20109;-83
2022/10/15 04:51:27;;;;;;;4.68;2.45;;;11.10;97.20;;;;;;4769791;30;20052;-83
2022/10/15 04:54:17;;;;;;;5.20;2.30;;;11.10;97.20;;;;;;4769771;30;20056;-83
2022/10/15 04:56:56;;;;;;;5.03;2.20;;;11.10;97.20;;;;;;4769476;29;20146;-82
2022/10/15 04:59:24;;;;;;;5.93;2.55;;;11.20;97.20;;;;;;4784842;29;20063;-83
2022/10/15 05:02:10;;;;;;;4.07;2.05;;;11.20;97.10;;;;;;4782382;30;20063;-83
2022/10/15 05:04:40;;;;;;;5.35;2.92;;;11.20;97.10;;;;;;4769260;30;20409;-83
2022/10/15 05:07:07;;;;;;;4.53;2.38;;;11.20;97.10;;;;;;4769644;29;20416;-83
2022/10/15 05:09:35;;;;;;;4.90;2.70;;;11.30;97.10;;;;;;4754555;30;20055;-82
2022/10/15 05:12:03;;;;;;;3.65;2.42;;;11.30;97.10;;;;;;4784639;29;20075;-82
2022/10/15 05:14:30;;;;;;;5.32;2.90;;;11.30;97.00;;;;;;4769251;29;20150;-83
2022/10/15 05:17:10;;;;;;;5.20;2.40;;;11.30;97.00;;;;;;4769251;30;20159;-83
2022/10/15 05:19:40;;;;;;;5.63;3.03;;;11.30;97.00;;;;;;4769211;29;20095;-83
2022/10/15 05:22:17;;;;;;;4.72;2.55;;;11.40;97.00;;;;;;4776826;29;20055;-83
2022/10/15 05:24:57;;;;;;;5.68;2.53;;;11.40;97.00;;;;;;4769010;29;20142;-83
2022/10/15 05:27:31;;;;;;;5.68;3.03;;;11.40;96.90;;;;;;4769041;30;20052;-83
2022/10/15 05:30:00;;;;;;;7.13;3.10;;;11.50;96.90;;;;;;4769018;29;20048;-83
2022/10/15 05:32:53;;;;;;;4.82;2.53;;;11.50;96.90;;;;;;4773622;29;20084;-83
2022/10/15 05:35:23;;;;;;;4.43;2.13;;;11.50;96.90;;;;;;4769309;30;20055;-83
2022/10/15 05:38:00;;;;;;;5.35;2.85;;;11.50;96.90;;;;;;4768880;29;20417;-83
2022/10/15 05:40:27;;;;;;;5.63;2.83;;;11.60;96.90;;;;;;4769072;29;20063;-83
2022/10/15 05:43:04;;;;;;;5.97;3.10;;;11.60;96.90;;;;;;4768704;30;20051;-82
2022/10/15 05:45:31;;;;;;;8.25;3.58;;;11.60;96.80;;;;;;4769113;29;20116;-83
2022/10/15 05:48:03;;;;;;;4.07;2.00;;;11.70;97.10;;;;;;4768855;29;20063;-83
2022/10/15 05:50:31;;;;;;;5.15;2.60;;;11.70;96.80;;;;;;4769026;30;20292;-83
2022/10/15 05:53:00;;;;;;;6.78;3.38;;;11.70;96.80;;;;;;4783460;29;20060;-82
2022/10/15 05:55:36;;;;;;;5.97;3.08;;;11.70;96.80;;;;;;4779708;29;20066;-81
2022/10/15 05:58:05;;;;;;;5.00;3.08;;;11.70;96.80;;;;;;4767927;30;20052;-82
2022/10/15 06:00:33;;;;;;;6.10;3.22;;;11.80;96.80;;;;;;4768363;29;20158;-83
2022/10/15 06:03:03;;;;;;;5.40;3.10;;;11.80;96.70;;;;;;4783079;29;20489;-83
2022/10/15 06:05:31;;;;;;;5.13;3.25;;;11.80;96.70;;;;;;4768012;29;20162;-83
2022/10/15 06:07:58;;;;;;;5.85;3.33;;;11.80;96.70;;;;;;4783298;29;20447;-83
2022/10/15 06:10:27;;;;;;;6.32;3.55;;;11.90;96.70;;;;;;4768596;29;20109;-83
2022/10/15 06:12:54;;;;;;;7.63;3.80;;;11.90;96.70;;;;;;4783161;29;20079;-83
2022/10/15 06:15:22;;;;;;;6.65;3.22;;;11.90;96.70;;;;;;4762323;30;20056;-83
2022/10/15 06:17:54;;;;;;;7.28;4.15;;;12.00;96.70;;;;;;4750681;30;20052;-83
2022/10/15 06:20:26;;;;;;;8.70;4.28;;;12.00;96.70;;;;;;4762766;29;20044;-83
2022/10/15 06:22:58;;;;;;;8.93;4.65;;;12.00;96.60;;;;;;4768042;29;20116;-83
2022/10/15 06:25:25;;;;;;;8.70;4.13;;;12.00;96.70;;;;;;4767935;29;20081;-83
2022/10/15 06:27:55;;;;;;;12.88;7.15;;;12.10;96.70;;;;;;4767921;29;20047;-83
2022/10/15 06:30:26;;;;;;;10.95;6.00;;;12.10;96.60;;;;;;4767940;29;20051;-83
2022/10/15 06:32:53;;;;;;;12.48;7.03;;;12.20;96.60;;;;;;4768112;29;20047;-83
2022/10/15 06:35:21;;;;;;;14.32;6.82;;;12.20;96.60;;;;;;4768042;30;20457;-83
2022/10/15 06:37:48;;;;;;;13.20;7.07;;;12.30;96.50;;;;;;4782939;29;20062;-82
2022/10/15 06:40:16;;;;;;;16.05;9.05;;;12.40;96.50;;;;;;4782970;29;20158;-83
2022/10/15 06:42:43;;;;;;;14.48;8.32;;;12.50;96.50;;;;;;4768276;30;20264;-84
2022/10/15 06:45:10;;;;;;;14.85;8.02;;;12.60;96.50;;;;;;4769802;29;20513;-83
2022/10/15 06:47:40;;;;;;;15.07;7.70;;;12.60;96.40;;;;;;4771622;29;20091;-83
2022/10/15 06:50:07;;;;;;;15.43;7.05;;;12.70;96.40;;;;;;4771586;30;20101;-83
2022/10/15 06:52:38;;;;;;;11.00;6.25;;;12.70;96.40;;;;;;4771794;30;20051;-83
2022/10/15 06:55:08;;;;;;;14.73;7.57;;;12.70;96.40;;;;;;4786348;29;20056;-83
2022/10/15 06:57:35;;;;;;;13.15;6.82;;;12.80;96.40;;;;;;4786286;29;20150;-83
2022/10/15 07:00:03;;;;;;;13.02;6.97;;;12.80;96.40;;;;;;4774453;29;20067;-83
2022/10/15 07:02:30;;;;;;;14.50;6.57;;;12.80;96.40;;;;;;4774033;29;20420;-83
2022/10/15 07:04:57;;;;;;;12.93;6.80;;;12.90;96.40;;;;;;4772474;30;20052;-83
2022/10/15 07:07:24;;;;;;;13.73;6.28;;;12.90;96.40;;;;;;4775251;29;20063;-83
2022/10/15 07:09:54;;;;;;;12.10;6.32;;;12.90;96.40;;;;;;4765379;30;20076;-82
2022/10/15 07:12:23;;;;;;;13.13;6.32;;;13.00;96.50;;;;;;4747428;30;20102;-83
2022/10/15 07:14:51;;;;;;;13.70;6.78;;;13.00;96.50;;;;;;4759471;30;20128;-82
2022/10/15 07:17:18;;;;;;;12.40;6.35;;;13.00;96.50;;;;;;4786095;30;20127;-83
2022/10/15 07:19:45;;;;;;;13.95;6.63;;;13.00;96.40;;;;;;4771126;29;20060;-83
2022/10/15 07:22:13;;;;;;;14.63;6.60;;;13.10;96.50;;;;;;4785840;29;20526;-83
2022/10/15 07:24:39;;;;;;;13.32;6.03;;;13.10;96.40;;;;;;4770930;29;20058;-83
2022/10/15 07:27:07;;;;;;;13.68;5.97;;;13.20;96.50;;;;;;4770960;29;20129;-83
2022/10/15 07:29:45;;;;;;;14.13;7.22;;;13.20;96.50;;;;;;4770055;30;20485;-83
2022/10/15 07:32:12;;;;;;;12.98;6.43;;;13.20;96.50;;;;;;4770931;30;20044;-83
2022/10/15 07:34:39;;;;;;;13.20;6.00;;;13.20;96.70;;;;;;4781972;30;20486;-83
2022/10/15 07:37:06;;;;;;;11.75;6.07;;;13.30;96.40;;;;;;4771013;30;20105;-82
2022/10/15 07:39:33;;;;;;;11.40;5.57;;;13.30;96.40;;;;;;4761670;29;20063;-83
2022/10/15 07:42:06;;;;;;;14.73;6.38;;;13.40;96.40;;;;;;4785145;29;20135;-83
2022/10/15 07:44:33;;;;;;;12.90;6.25;;;13.40;96.40;;;;;;4770677;29;20105;-82
2022/10/15 07:47:02;;;;;;;9.80;5.88;;;13.40;96.40;;;;;;4785635;29;20048;-81
2022/10/15 07:49:28;;;;;;;13.75;6.45;;;13.40;96.40;;;;;;4770815;29;20075;-82
2022/10/15 07:51:55;;;;;;;13.48;6.78;;;13.50;96.40;;;;;;4770842;29;20051;-81
2022/10/15 07:54:23;;;;;;;16.30;8.20;;;13.50;96.40;;;;;;4770583;29;20414;-82
2022/10/15 07:56:50;;;;;;;14.45;7.88;;;13.50;96.40;;;;;;4784630;29;20501;-82
2022/10/15 07:59:17;;;;;;;14.38;6.60;;;13.60;96.40;;;;;;4771830;29;20043;-83
2022/10/15 08:01:44;;;;;;;13.02;6.65;;;13.60;96.40;;;;;;4785359;29;20537;-83
2022/10/15 08:04:17;;;;;;;13.50;6.15;;;13.60;96.40;;;;;;4770482;29;20052;-82
2022/10/15 08:06:48;;;;;;;12.32;6.45;;;13.60;96.40;;;;;;4785332;29;20509;-82
2022/10/15 08:09:16;;;;;;;14.93;8.02;;;13.60;96.40;;;;;;4770264;29;20048;-82
2022/10/15 08:11:43;;;;;;;14.52;6.88;;;13.70;96.40;;;;;;4770521;30;20109;-82
2022/10/15 08:14:11;;;;;;;11.95;6.45;;;13.80;96.40;;;;;;4785001;29;20080;-82
2022/10/15 08:16:38;;;;;;;14.93;7.00;;;13.90;96.30;;;;;;4784978;30;20062;-82
2022/10/15 08:19:05;;;;;;;13.65;6.75;;;14.00;96.20;;;;;;4785117;29;20067;-82
2022/10/15 08:21:32;;;;;;;16.90;8.27;;;14.10;96.10;;;;;;4784945;29;20136;-82
2022/10/15 08:23:59;;;;;;;14.27;6.72;;;14.20;96.10;;;;;;4770110;29;20062;-82
2022/10/15 08:26:32;;;;;;;13.25;6.95;;;14.30;96.00;;;;;;4769845;30;20051;-82
2022/10/15 08:28:59;;;;;;;15.30;7.68;;;14.40;96.00;;;;;;4784860;29;20138;-82
2022/10/15 08:31:27;;;;;;;15.98;7.78;;;14.40;95.90;;;;;;4784916;29;20052;-82
2022/10/15 08:33:54;;;;;;;12.57;6.93;;;14.40;96.20;;;;;;4784680;29;20048;-82
2022/10/15 08:36:20;;;;;;;14.32;6.45;;;14.50;95.90;;;;;;4769665;30;20105;-82
2022/10/15 08:38:49;;;;;;;14.52;7.05;;;14.50;96.20;;;;;;4784725;29;20052;-82
2022/10/15 08:41:36;;;;;;;13.85;6.38;;;14.60;96.00;;;;;;4769566;30;20052;-82
2022/10/15 08:44:05;;;;;;;11.80;6.40;;;14.70;95.90;;;;;;4763938;30;20050;-82
2022/10/15 08:46:43;;;;;;;11.98;6.28;;;14.90;95.90;;;;;;4769405;30;20075;-82
2022/10/15 08:49:46;;;;;;;13.90;7.38;;;15.00;95.70;;;;;;4773431;29;20044;-82
2022/10/15 08:52:31;;;;;;;12.05;6.25;;;15.10;95.60;;;;;;4768689;30;20113;-82
2022/10/15 08:55:02;;;;;;;11.48;6.07;;;15.20;95.50;;;;;;4769411;29;20138;-82
2022/10/15 08:57:50;;;;;;;11.65;5.88;;;15.30;95.50;;;;;;4769693;30;20063;-86
2022/10/15 09:00:34;;;;;;;11.55;6.32;;;15.30;95.40;;;;;;4769444;29;20138;-84
2022/10/15 09:03:22;;;;;;;11.73;6.15;;;15.30;95.50;;;;;;4769518;30;20048;-84
2022/10/15 09:06:06;;;;;;;9.68;4.88;;;15.30;95.40;;;;;;4754529;30;20083;-86
2022/10/15 09:08:59;;;;;;;11.70;6.28;;;15.20;95.50;;;;;;4784405;29;20477;-85
2022/10/15 09:11:44;;;;;;;10.40;5.45;;;15.10;95.60;;;;;;4772911;29;20568;-82
2022/10/15 09:14:17;;;;;;;13.77;6.85;;;15.00;95.80;;;;;;4784237;29;20468;-84
2022/10/15 09:16:48;;;;;;;11.00;5.10;;;15.00;95.80;;;;;;4769305;29;20075;-83
2022/10/15 09:19:23;;;;;;;10.27;5.45;;;15.10;95.80;;;;;;4783731;29;20059;-82
2022/10/15 09:21:52;;;;;;;12.95;6.30;;;15.20;95.70;;;;;;4784104;29;20052;-83
2022/10/15 09:24:25;;;;;;;10.27;5.57;;;15.30;95.60;;;;;;4783880;29;20360;-83
2022/10/15 09:26:58;;;;;;;11.43;5.72;;;15.40;95.50;;;;;;4768967;30;20047;-83
2022/10/15 09:29:52;;;;;;;12.45;5.90;;;15.40;95.40;;;;;;4769266;29;20062;-83
2022/10/15 09:32:30;;;;;;;9.93;6.03;;;15.50;95.40;;;;;;4769274;29;20081;-83
2022/10/15 09:35:15;;;;;;;11.57;6.25;;;15.50;95.50;;;;;;4770765;29;20142;-83
2022/10/15 09:38:12;;;;;;;11.68;6.90;;;15.60;95.40;;;;;;4769689;29;20534;-88
2022/10/15 09:41:15;;;;;;;11.82;5.85;;;15.60;95.30;;;;;;4769894;29;20132;-88
2022/10/15 09:43:47;;;;;;;10.07;5.00;;;15.60;95.30;;;;;;4769882;30;20154;-87
2022/10/15 09:46:14;;;;;;;8.70;4.82;;;15.70;95.30;;;;;;4769585;30;20048;-88
2022/10/15 09:48:49;;;;;;;8.25;4.32;;;15.80;95.20;;;;;;4769631;30;20060;-88
2022/10/15 09:51:28;;;;;;;8.48;3.58;;;15.90;95.50;;;;;;4769715;30;20062;-89
2022/10/15 09:54:05;;;;;;;7.85;4.07;;;15.90;95.20;;;;;;4760032;29;20056;-88
2022/10/15 09:56:38;;;;;;;9.27;4.15;;;16.00;95.10;;;;;;4784146;30;20068;-88
2022/10/15 09:59:05;;;;;;;8.65;3.75;;;16.10;94.90;;;;;;4769542;30;20062;-88
2022/10/15 10:01:35;;;;;;;7.85;4.10;;;16.20;94.90;;;;;;4769000;29;20056;-88
2022/10/15 10:04:19;;;;;;;9.75;4.82;;;16.10;94.90;;;;;;4770346;29;20063;-88
2022/10/15 10:06:55;;;;;;;9.20;5.20;;;16.00;94.90;;;;;;4783753;29;20097;-88
2022/10/15 10:09:48;;;;;;;10.05;5.47;;;15.90;95.10;;;;;;4784486;29;20059;-91
2022/10/15 10:12:20;;;;;;;9.40;5.03;;;15.80;95.10;;;;;;4769934;29;20055;-90
2022/10/15 10:15:28;;;;;;;9.25;4.80;;;15.70;95.20;;;;;;4769919;29;20060;-90
2022/10/15 10:17:56;;;;;;;6.28;3.35;;;15.60;95.30;;;;;;4779114;29;20052;-91
2022/10/15 10:20:26;;;;;;;7.75;4.13;;;15.60;95.40;;;;;;4784641;29;20075;-91
2022/10/15 10:22:56;;;;;;;6.72;3.50;;;15.60;95.40;;;;;;4786474;29;20075;-91
2022/10/15 10:25:26;;;;;;;9.05;4.55;;;15.60;95.40;;;;;;4769837;29;20132;-91
2022/10/15 10:27:54;;;;;;;8.65;4.40;;;15.60;95.40;;;;;;4769720;29;20048;-90
2022/10/15 10:30:22;;;;;;;8.07;4.22;;;15.60;95.50;;;;;;4769676;29;20055;-91
2022/10/15 10:32:58;;;;;;;8.68;4.10;;;15.50;95.50;;;;;;4769674;29;20048;-91
2022/10/15 10:35:34;;;;;;;7.85;4.13;;;15.50;95.60;;;;;;4769632;30;20052;-91
2022/10/15 10:38:01;;;;;;;9.00;4.53;;;15.50;95.60;;;;;;4769697;30;20067;-90
2022/10/15 10:40:33;;;;;;;9.85;4.35;;;15.40;95.60;;;;;;4785066;29;20059;-91
2022/10/15 10:43:16;;;;;;;7.38;3.47;;;15.40;95.70;;;;;;4784973;30;20051;-91
2022/10/15 10:46:13;;;;;;;7.25;3.83;;;15.40;96.00;;;;;;4771288;30;20048;-92
2022/10/15 10:48:47;;;;;;;7.53;3.53;;;15.40;95.80;;;;;;4769905;30;20060;-92
2022/10/15 10:51:19;;;;;;;6.72;3.17;;;15.30;95.90;;;;;;4784524;29;20060;-92
2022/10/15 10:54:13;;;;;;;6.70;3.78;;;15.30;95.90;;;;;;4784884;29;20143;-91
2022/10/15 10:56:42;;;;;;;6.10;2.97;;;15.20;95.90;;;;;;4784207;30;20048;-90
2022/10/15 10:59:24;;;;;;;6.70;3.20;;;15.20;96.00;;;;;;4784255;30;20113;-89
2022/10/15 11:01:51;;;;;;;6.95;3.50;;;15.20;96.00;;;;;;4768835;30;20060;-87
2022/10/15 11:04:27;;;;;;;7.45;3.80;;;15.20;96.00;;;;;;4768563;29;20155;-87
2022/10/15 11:07:03;;;;;;;7.75;4.00;;;15.20;96.00;;;;;;4784299;29;20162;-90
2022/10/15 11:09:49;;;;;;;9.13;3.78;;;15.20;96.10;;;;;;4755845;30;20060;-86
2022/10/15 11:12:34;;;;;;;7.25;3.15;;;15.20;96.10;;;;;;4768523;29;20553;-86
2022/10/15 11:15:10;;;;;;;7.75;3.83;;;15.20;96.10;;;;;;4783181;29;20055;-85
2022/10/15 11:18:15;;;;;;;6.85;3.92;;;15.30;96.10;;;;;;4768597;29;20125;-86
2022/10/15 11:21:00;;;;;;;8.05;3.85;;;15.20;96.10;;;;;;4768129;30;20079;-86
2022/10/15 11:23:57;;;;;;;7.22;3.72;;;15.20;96.20;;;;;;4767838;30;20064;-85
2022/10/15 11:26:44;;;;;;;6.10;2.93;;;15.20;96.20;;;;;;4770771;29;20055;-86
2022/10/15 11:29:59;;;;;;;6.95;3.78;;;15.20;96.20;;;;;;4765007;30;20047;-88
2022/10/15 11:32:52;;;;;;;8.13;3.63;;;15.30;96.20;;;;;;4771348;29;20138;-94
2022/10/15 11:35:50;;;;;;;6.68;3.95;;;15.30;96.20;;;;;;4777315;30;20056;-94
2022/10/15 11:38:38;;;;;;;5.25;2.88;;;15.30;96.30;;;;;;4771717;30;20060;-89
2022/10/15 11:41:38;;;;;;;6.05;2.90;;;15.30;96.30;;;;;;4769425;30;20052;-89
2022/10/15 11:44:08;;;;;;;5.93;2.80;;;15.30;96.30;;;;;;4772209;30;20456;-92
2022/10/15 11:46:35;;;;;;;7.32;3.50;;;15.30;96.30;;;;;;4787515;29;20055;-91
2022/10/15 11:49:38;;;;;;;6.05;3.47;;;15.30;96.30;;;;;;4790508;29;20058;-86
2022/10/15 11:52:24;;;;;;;5.95;2.88;;;15.40;96.30;;;;;;4789170;29;20047;-92
2022/10/15 11:55:06;;;;;;;6.25;2.90;;;15.40;96.40;;;;;;4789418;29;20101;-91
2022/10/15 11:57:39;;;;;;;5.90;3.15;;;15.50;96.40;;;;;;4788784;29;20123;-93
2022/10/15 12:00:31;;;;;;;6.07;2.95;;;15.50;96.40;;;;;;4779622;29;20086;-94
2022/10/15 12:03:22;;;;;;;4.85;2.38;;;15.50;96.30;;;;;;4790061;29;20104;-94
2022/10/15 12:06:12;;;;;;;5.28;2.28;;;15.50;96.30;;;;;;4788209;29;20155;-89
2022/10/15 12:08:46;;;;;;;3.92;1.65;;;15.60;96.40;;;;;;4789479;29;20094;-90
2022/10/15 12:11:48;;;;;;;4.35;3.00;;;15.60;96.40;;;;;;4789373;29;20101;-89
2022/10/15 12:18:32;;;;;;;4.53;1.77;;;15.60;96.50;;;;;;4781195;29;20197;-91
2022/10/15 12:21:04;;;;;;;3.15;1.67;;;15.60;96.60;;;;;;4789397;29;20062;-91
2022/10/15 12:23:36;;;;;;;4.60;1.83;;;15.60;96.60;;;;;;4789481;29;20055;-90
2022/10/15 12:26:48;;;;;;;3.30;2.08;;;15.60;96.60;;;;;;4789108;29;20496;-90
2022/10/15 12:29:21;;;;;;;2.72;1.23;;;15.70;96.60;;;;;;4788135;30;20048;-92
2022/10/15 12:31:52;;;;;;;2.70;1.42;;;15.70;96.60;;;;;;4775672;30;20051;-96
2022/10/15 12:35:17;;;;;;;4.78;1.60;;;15.70;96.60;;;;;;4752314;30;20438;-89
2022/10/15 12:37:51;;;;;;;2.53;1.70;;;15.80;96.60;;;;;;4752229;30;20467;-89
2022/10/15 12:40:29;;;;;;;3.70;2.20;;;15.80;96.60;;;;;;4752407;30;20048;-89
2022/10/15 12:43:16;;;;;;;5.78;2.45;;;15.80;96.60;;;;;;4751771;30;20044;-88
2022/10/15 12:47:20;;;;;;;4.93;3.10;;;15.90;96.60;;;;;;4752604;30;20064;-94
2022/10/15 12:50:01;;;;;;;3.85;2.53;;;16.00;96.70;;;;;;4752547;30;20056;-91
2022/10/15 12:52:53;;;;;;;3.50;2.17;;;16.00;96.70;;;;;;4763818;30;20151;-90
2022/10/15 12:55:34;;;;;;;2.67;1.92;;;16.00;96.60;;;;;;4785367;29;20051;-85
2022/10/15 12:58:25;;;;;;;3.60;2.00;;;16.00;96.60;;;;;;4773910;29;20048;-86
2022/10/15 13:00:52;;;;;;;4.68;2.58;;;16.10;96.60;;;;;;4769872;29;20062;-89
2022/10/15 13:03:19;;;;;;;3.35;1.73;;;16.20;96.60;;;;;;4770327;29;20061;-88
2022/10/15 13:09:21;;;;;;;3.03;1.83;;;16.40;96.50;;;;;;4771066;30;20420;-88
2022/10/15 13:11:53;;;;;;;2.88;1.88;;;16.40;96.60;;;;;;4753164;30;20110;-93
2022/10/15 13:14:47;;;;;;;4.47;2.72;;;16.40;96.50;;;;;;4768127;29;20056;-90
2022/10/15 13:17:17;;;;;;;3.17;2.28;;;16.40;96.50;;;;;;4771743;29;20055;-91
2022/10/15 13:20:06;;;;;;;3.45;2.05;;;16.50;96.60;;;;;;4771153;29;20111;-91
2022/10/15 13:26:59;;;;;;;3.08;1.85;;;16.70;96.40;;;;;;4771281;30;20054;-88
2022/10/15 13:33:09;;;;;;;3.65;2.10;;;16.80;96.70;;;;;;4763777;30;20059;-85
2022/10/15 13:35:37;;;;;;;4.00;2.53;;;16.80;96.50;;;;;;4769157;30;20467;-94
2022/10/15 13:38:50;;;;;;;;;;;;;;;;;;;;;
2022/10/15 13:42:31;;;;;;;3.00;1.92;;;16.80;96.60;;;;;;4787208;29;20060;-96
2022/10/15 13:45:48;;;;;;;4.07;2.40;;;16.90;96.60;;;;;;4752513;30;20059;-89